Hiram, Maine
Current Conditions -  °F | °C
As of 4:54 PM on Wednesday 26 Nov 2014 (Local Time) from KIZG Reporting Station
Light Snow Light Snow  
Wind Chill: 26°   Ceiling: 500
Heat Index: 32°   Visibility: 0.75mi
Dew Point: 30°   Wind: 6mph
Humidity: 92%   Direction: 10°N
Pressure: 30.03"   Gusts: NA
Location:  43.81°N, 70.87°W
Report Text: KIZG 262154Z AUTO 01005KT 3/4SM -SN BR VV005 00/M01 A3003 RMK AO2 SLP172 P0008 T00001011
Loading
Personal Weather Stations






























Interactive Weather Map New forecast layout! Learn more

10-Day Weather Forecast

Advertisements
Track Severe Weather on mobile